Current | Forecast
Updated: 7:00 PM MSK on October 19, 2017
Observed at Arhangel'sk, Russia
Temperature 36°F
Windchill 30°F
Humidity 87%
Dew Point 32°F
Wind North at 7 mph
Pressure 29.80 in (Steady)
Conditions Scattered Clouds
Visibility 6.2 miles
UV 0 out of 16
Clouds Scattered Clouds (SCT) : 2000 ft
Yesterday's Maximum 41°F
Yesterday's Minimum 37°F approx.
Yesterday's Heating Degree Days 26 approx.
Sunrise7:27 AM MSK
Sunset4:42 PM MSK
Moon Rise6:11 AM MSK
Moon Set5:17 PM MSK
Moon PhaseMoon Phase
Waning Crescent
Raw METARMETAR ULAA 191600Z 35003MPS 310V040 9999 SCT020 02/M00 Q1009 R26/290060 NOSIG RMK QFE755/1007


Monday
. High: 44° F.
Tuesday
. High: 37° F.
Wednesday
. High: 39° F.
Thursday
. High: 46° F.
Friday
. High: 51° F.
Saturday
. High: 50° F.
Sunday
. High: 48° F.
Monday
. High: 46° F.

Units: English | Metric

Find the Weather for any City, State or Zipcode, or Country:

U.S. State List | Severe Weather | Tropical Storms | Ski Conditions
United States | Canada | Central America | South America | Asia | Europe | Australia | Africa | Islands

Weather Underground

© Copyright 2017
The Weather Company, LLC